createdAt,value
2019-05-25T00:01:41.629Z,98546.30
2019-05-25T00:04:08.897Z,98541.16
2019-05-25T00:06:36.432Z,98538.80
2019-05-25T00:09:06.595Z,98539.64
2019-05-25T00:11:33.718Z,98541.67
2019-05-25T00:14:00.515Z,98538.28
2019-05-25T00:16:27.737Z,98548.17
2019-05-25T00:18:54.683Z,98541.59
2019-05-25T00:21:21.468Z,98549.46
2019-05-25T00:23:48.655Z,98544.66
2019-05-25T00:26:17.935Z,98538.91
2019-05-25T00:28:44.728Z,98536.75
2019-05-25T00:31:11.489Z,98544.32
2019-05-25T00:33:38.350Z,98542.05
2019-05-25T00:36:05.387Z,98540.64
2019-05-25T00:38:32.191Z,98548.28
2019-05-25T00:40:59.798Z,98545.71
2019-05-25T00:43:26.626Z,98558.34
2019-05-25T00:45:53.897Z,98554.79
2019-05-25T00:48:20.703Z,98560.48
2019-05-25T00:50:48.108Z,98557.94
2019-05-25T00:53:15.092Z,98557.70
2019-05-25T00:55:42.034Z,98550.89
2019-05-25T00:58:09.498Z,98546.49
2019-05-25T01:00:36.850Z,98552.89
2019-05-25T01:03:04.129Z,98554.83
2019-05-25T01:05:31.651Z,98546.00
2019-05-25T01:07:58.872Z,98551.71
2019-05-25T01:10:25.714Z,98557.11
2019-05-25T01:12:52.544Z,98551.88
2019-05-25T01:15:21.535Z,98544.95
2019-05-25T01:17:49.412Z,98556.80
2019-05-25T01:20:21.294Z,98553.63
2019-05-25T01:22:48.280Z,98558.78
2019-05-25T01:25:17.222Z,98558.42
2019-05-25T01:27:44.117Z,98562.03
2019-05-25T01:30:12.424Z,98561.73
2019-05-25T01:32:39.348Z,98561.27
2019-05-25T01:35:07.149Z,98564.48
2019-05-25T01:37:34.229Z,98574.37
2019-05-25T01:40:01.351Z,98565.06
2019-05-25T01:42:29.053Z,98573.12
2019-05-25T01:44:55.869Z,98575.84
2019-05-25T01:47:22.606Z,98577.32
2019-05-25T01:49:49.512Z,98572.18
2019-05-25T01:52:16.691Z,98577.08
2019-05-25T01:54:58.627Z,98571.98
2019-05-25T01:57:12.934Z,98577.98
2019-05-25T01:59:39.713Z,98575.36
2019-05-25T02:02:06.788Z,98583.44
2019-05-25T02:04:33.827Z,98582.41
2019-05-25T02:07:01.091Z,98583.36
2019-05-25T02:09:27.965Z,98574.30
2019-05-25T02:11:54.730Z,98581.83
2019-05-25T02:14:21.682Z,98573.59
2019-05-25T02:16:48.489Z,98578.08
2019-05-25T02:19:17.161Z,98575.91
2019-05-25T02:21:43.904Z,98576.00
2019-05-25T02:24:10.989Z,98577.12
2019-05-25T02:26:38.100Z,98579.70
2019-05-25T02:29:05.238Z,98578.55
2019-05-25T02:31:32.221Z,98585.77
2019-05-25T02:33:59.151Z,98576.72
2019-05-25T02:36:26.004Z,98572.70
2019-05-25T02:38:52.983Z,98573.99
2019-05-25T02:41:19.785Z,98573.13
2019-05-25T02:43:46.690Z,98578.73
2019-05-25T02:46:13.472Z,98576.41
2019-05-25T02:48:40.235Z,98579.84
2019-05-25T02:51:07.311Z,98579.45
2019-05-25T02:53:34.086Z,98580.32
2019-05-25T02:56:00.995Z,98573.38
2019-05-25T02:58:27.988Z,98573.92
2019-05-25T03:00:55.697Z,98574.90
2019-05-25T03:03:22.550Z,98577.92
2019-05-25T03:05:50.222Z,98582.56
2019-05-25T03:08:17.497Z,98583.13
2019-05-25T03:10:46.290Z,98580.08
2019-05-25T03:13:14.770Z,98580.72
2019-05-25T03:15:41.804Z,98578.40
2019-05-25T03:18:08.577Z,98583.66
2019-05-25T03:20:35.544Z,98580.37
2019-05-25T03:23:02.391Z,98577.65
2019-05-25T03:25:29.158Z,98581.21
2019-05-25T03:27:56.048Z,98586.73
2019-05-25T03:30:36.121Z,98582.23
2019-05-25T03:33:03.766Z,98585.09
2019-05-25T03:35:31.528Z,98596.45
2019-05-25T03:37:58.341Z,98588.53
2019-05-25T03:40:25.226Z,98590.77
2019-05-25T03:42:52.498Z,98597.17
2019-05-25T03:45:19.594Z,98601.10
2019-05-25T03:47:46.970Z,98598.69
2019-05-25T03:50:14.036Z,98598.98
2019-05-25T03:52:40.940Z,98605.00
2019-05-25T03:55:08.027Z,98597.91
2019-05-25T03:57:34.939Z,98596.39
2019-05-25T04:00:05.264Z,98599.31
2019-05-25T04:02:32.156Z,98601.70
2019-05-25T04:04:58.895Z,98600.16
2019-05-25T04:07:26.103Z,98602.19
2019-05-25T04:09:53.093Z,98609.32
2019-05-25T04:12:19.963Z,98608.11
2019-05-25T04:14:46.737Z,98611.02
2019-05-25T04:17:14.103Z,98611.02
2019-05-25T04:19:41.026Z,98617.42
2019-05-25T04:22:07.807Z,98611.75
2019-05-25T04:24:34.931Z,98612.53
2019-05-25T04:27:01.719Z,98616.31
2019-05-25T04:29:28.812Z,98619.03
2019-05-25T04:31:55.764Z,98615.98
2019-05-25T04:34:24.749Z,98615.55
2019-05-25T04:36:51.576Z,98617.97
2019-05-25T04:39:18.334Z,98621.86
2019-05-25T04:41:45.146Z,98621.95
2019-05-25T04:44:12.029Z,98620.84
2019-05-25T04:46:38.866Z,98619.18
2019-05-25T04:49:05.722Z,98624.83
2019-05-25T04:51:32.538Z,98622.01
2019-05-25T04:53:59.718Z,98623.02
2019-05-25T04:56:38.763Z,98628.70
2019-05-25T04:58:55.351Z,98628.46
2019-05-25T05:01:22.735Z,98630.16
2019-05-25T05:03:49.647Z,98633.54
2019-05-25T05:06:16.611Z,98630.97
2019-05-25T05:08:43.426Z,98635.39
2019-05-25T05:11:10.580Z,98631.22
2019-05-25T05:13:39.222Z,98634.09
2019-05-25T05:16:06.482Z,98635.66
2019-05-25T05:18:33.284Z,98630.88
2019-05-25T05:21:01.473Z,98631.88
2019-05-25T05:23:28.330Z,98628.44
2019-05-25T05:25:55.119Z,98630.03
2019-05-25T05:28:21.920Z,98633.72
2019-05-25T05:30:49.168Z,98629.16
2019-05-25T05:33:16.175Z,98626.12
2019-05-25T05:35:44.901Z,98637.32
2019-05-25T05:38:12.962Z,98636.59
2019-05-25T05:40:40.992Z,98639.02
2019-05-25T05:43:09.892Z,98630.61
2019-05-25T05:45:39.506Z,98636.63
2019-05-25T05:48:09.776Z,98640.45
2019-05-25T05:50:38.110Z,98634.62
2019-05-25T05:53:05.292Z,98643.75
2019-05-25T05:55:32.838Z,98639.58
2019-05-25T05:58:01.033Z,98638.89
2019-05-25T06:00:29.792Z,98635.60
2019-05-25T06:02:57.573Z,98641.28
2019-05-25T06:05:24.954Z,98637.20
2019-05-25T06:07:51.811Z,98643.78
2019-05-25T06:10:20.497Z,98642.42
2019-05-25T06:12:47.409Z,98648.41
2019-05-25T06:15:17.870Z,98646.88
2019-05-25T06:17:44.985Z,98647.33
2019-05-25T06:20:12.651Z,98646.26
2019-05-25T06:22:39.581Z,98646.48
2019-05-25T06:25:08.319Z,98647.91
2019-05-25T06:27:35.426Z,98654.53
2019-05-25T06:30:05.572Z,98657.61
2019-05-25T06:32:32.785Z,98657.55
2019-05-25T06:34:59.651Z,98654.92
2019-05-25T06:37:26.545Z,98658.13
2019-05-25T06:39:53.417Z,98652.32
2019-05-25T06:42:20.709Z,98654.81
2019-05-25T06:44:47.583Z,98656.02
2019-05-25T06:47:14.465Z,98649.11
2019-05-25T06:49:41.422Z,98649.11
2019-05-25T06:52:08.414Z,98649.16
2019-05-25T06:54:35.441Z,98650.91
2019-05-25T06:57:02.439Z,98650.95
2019-05-25T06:59:29.503Z,98651.54
2019-05-25T07:01:56.619Z,98653.64
2019-05-25T07:04:23.784Z,98662.00
2019-05-25T07:06:50.831Z,98655.99
2019-05-25T07:09:19.257Z,98655.88
2019-05-25T07:11:46.174Z,98665.91
2019-05-25T07:14:13.090Z,98657.61
2019-05-25T07:16:39.916Z,98667.64
2019-05-25T07:19:06.764Z,98669.11
2019-05-25T07:21:34.132Z,98669.82
2019-05-25T07:24:01.747Z,98676.06
2019-05-25T07:26:28.779Z,98675.83
2019-05-25T07:28:56.124Z,98673.88
2019-05-25T07:31:24.307Z,98669.20
2019-05-25T07:33:51.656Z,98670.78
2019-05-25T07:36:18.949Z,98675.33
2019-05-25T07:38:46.033Z,98681.50
2019-05-25T07:41:12.872Z,98676.33
2019-05-25T07:43:40.273Z,98678.50
2019-05-25T07:46:07.181Z,98676.88
2019-05-25T07:48:34.433Z,98687.57
2019-05-25T07:51:01.333Z,98681.36
2019-05-25T07:53:28.254Z,98679.26
2019-05-25T07:55:55.029Z,98683.67
2019-05-25T07:58:22.481Z,98683.31
2019-05-25T08:00:49.603Z,98686.46
2019-05-25T08:03:16.454Z,98686.91
2019-05-25T08:05:43.804Z,98691.34
2019-05-25T08:08:10.657Z,98686.83
2019-05-25T08:10:37.904Z,98695.91
2019-05-25T08:13:04.967Z,98695.97
2019-05-25T08:15:31.937Z,98695.65
2019-05-25T08:17:59.382Z,98697.86
2019-05-25T08:20:26.177Z,98702.47
2019-05-25T08:22:52.934Z,98696.42
2019-05-25T08:25:20.029Z,98700.43
2019-05-25T08:27:46.944Z,98690.94
2019-05-25T08:30:14.937Z,98694.00
2019-05-25T08:32:41.874Z,98697.18
2019-05-25T08:35:10.074Z,98689.59
2019-05-25T08:37:36.939Z,98691.27
2019-05-25T08:40:08.620Z,98690.17
2019-05-25T08:42:35.607Z,98692.13
2019-05-25T08:45:06.101Z,98696.70
2019-05-25T08:47:32.923Z,98692.77
2019-05-25T08:49:59.859Z,98693.94
2019-05-25T08:52:27.128Z,98696.52
2019-05-25T08:54:54.057Z,98695.61
2019-05-25T08:57:20.976Z,98699.78
2019-05-25T08:59:47.847Z,98698.17
2019-05-25T09:02:15.006Z,98703.59
2019-05-25T09:04:42.325Z,98704.58
2019-05-25T09:07:09.491Z,98706.38
2019-05-25T09:09:36.751Z,98702.86
2019-05-25T09:12:04.123Z,98700.80
2019-05-25T09:14:31.245Z,98701.11
2019-05-25T09:16:58.197Z,98704.41
2019-05-25T09:19:25.077Z,98705.83
2019-05-25T09:22:02.187Z,98693.91
2019-05-25T09:24:20.551Z,98705.93
2019-05-25T09:26:47.491Z,98707.52
2019-05-25T09:29:14.300Z,98708.33
2019-05-25T09:31:42.167Z,98706.45
2019-05-25T09:34:08.996Z,98710.22
2019-05-25T09:36:35.946Z,98703.47
2019-05-25T09:39:06.064Z,98711.11
2019-05-25T09:41:32.924Z,98712.80
2019-05-25T09:43:59.895Z,98714.40
2019-05-25T09:46:26.703Z,98704.53
2019-05-25T09:48:53.468Z,98707.34
2019-05-25T09:51:20.723Z,98711.94
2019-05-25T09:53:47.953Z,98707.78
2019-05-25T09:56:14.850Z,98710.81
2019-05-25T09:58:41.585Z,98716.75
2019-05-25T10:01:09.514Z,98709.42
2019-05-25T10:03:36.396Z,98712.05
2019-05-25T10:06:10.886Z,98716.77
2019-05-25T10:08:32.585Z,98715.80
2019-05-25T10:10:59.579Z,98718.55
2019-05-25T10:13:26.364Z,98712.84
2019-05-25T10:15:53.398Z,98711.92
2019-05-25T10:18:20.170Z,98716.25
2019-05-25T10:20:46.985Z,98712.27
2019-05-25T10:23:13.784Z,98708.06
2019-05-25T10:25:40.582Z,98704.83
2019-05-25T10:28:07.752Z,98693.30
2019-05-25T10:30:35.248Z,98688.09
2019-05-25T10:33:02.224Z,98684.64
2019-05-25T10:35:29.323Z,98689.61
2019-05-25T10:37:56.257Z,98684.16
2019-05-25T10:40:23.601Z,98682.41
2019-05-25T10:42:50.484Z,98681.52
2019-05-25T10:45:17.544Z,98681.27
2019-05-25T10:47:46.182Z,98670.09
2019-05-25T10:50:13.771Z,98671.55
2019-05-25T10:52:40.954Z,98676.73
2019-05-25T10:55:08.642Z,98677.13
2019-05-25T10:57:37.190Z,98678.52
2019-05-25T11:00:07.769Z,98679.01
2019-05-25T11:02:34.575Z,98681.17
2019-05-25T11:05:03.211Z,98677.16
2019-05-25T11:07:30.596Z,98679.73
2019-05-25T11:09:57.391Z,98678.06
2019-05-25T11:12:26.117Z,98680.55
2019-05-25T11:14:53.252Z,98683.88
2019-05-25T11:17:20.096Z,98673.56
2019-05-25T11:19:47.388Z,98676.62
2019-05-25T11:22:14.249Z,98671.13
2019-05-25T11:24:41.074Z,98669.63
2019-05-25T11:27:07.878Z,98662.30
2019-05-25T11:29:35.081Z,98661.84
2019-05-25T11:32:04.797Z,98660.46
2019-05-25T11:34:32.928Z,98661.77
2019-05-25T11:37:00.877Z,98657.84
2019-05-25T11:39:28.210Z,98652.30
2019-05-25T11:41:55.197Z,98651.56
2019-05-25T11:44:21.970Z,98652.05
2019-05-25T11:46:48.826Z,98641.23
2019-05-25T11:49:22.555Z,98648.77
2019-05-25T11:51:45.367Z,98642.41
2019-05-25T11:54:12.478Z,98647.14
2019-05-25T11:56:39.351Z,98638.17
2019-05-25T11:59:06.315Z,98638.48
2019-05-25T12:01:33.745Z,98631.17
2019-05-25T12:04:00.507Z,98630.44
2019-05-25T12:06:27.667Z,98625.13
2019-05-25T12:08:54.457Z,98624.54
2019-05-25T12:11:21.242Z,98626.20
2019-05-25T12:13:47.997Z,98622.28
2019-05-25T12:16:14.908Z,98615.11
2019-05-25T12:18:42.428Z,98618.46
2019-05-25T12:21:09.309Z,98617.66
2019-05-25T12:23:36.158Z,98618.03
2019-05-25T12:26:03.436Z,98626.30
2019-05-25T12:28:30.794Z,98625.34
2019-05-25T12:30:57.719Z,98624.22
2019-05-25T12:33:24.690Z,98621.47
2019-05-25T12:35:51.627Z,98625.98
2019-05-25T12:38:18.622Z,98625.98
2019-05-25T12:40:53.508Z,98626.77
2019-05-25T12:43:16.334Z,98626.20
2019-05-25T12:45:46.205Z,98624.92
2019-05-25T12:48:12.957Z,98617.61
2019-05-25T12:50:39.867Z,98613.64
2019-05-25T12:53:06.668Z,98615.91
2019-05-25T12:55:33.851Z,98610.70
2019-05-25T12:58:03.574Z,98603.84
2019-05-25T13:00:30.550Z,98598.71
2019-05-25T13:02:57.386Z,98597.47
2019-05-25T13:05:33.615Z,98600.38
2019-05-25T13:07:53.254Z,98602.50
2019-05-25T13:10:20.327Z,98600.17
2019-05-25T13:12:47.081Z,98597.73
2019-05-25T13:15:14.286Z,98604.41
2019-05-25T13:17:42.159Z,98602.39
2019-05-25T13:20:09.792Z,98611.78
2019-05-25T13:22:37.157Z,98626.08
2019-05-25T13:25:07.112Z,98628.77
2019-05-25T13:27:34.542Z,98649.26
2019-05-25T13:30:03.319Z,98670.20
2019-05-25T13:32:30.161Z,98680.21
2019-05-25T13:34:57.095Z,98695.46
2019-05-25T13:37:23.865Z,98705.50
2019-05-25T13:39:50.814Z,98722.03
2019-05-25T13:42:17.753Z,98732.68
2019-05-25T13:44:44.600Z,98733.36
2019-05-25T13:47:11.669Z,98731.42
2019-05-25T13:49:38.532Z,98732.45
2019-05-25T13:52:06.236Z,98725.27
2019-05-25T13:54:33.144Z,98722.77
2019-05-25T13:56:59.964Z,98724.00
2019-05-25T13:59:26.866Z,98725.91
2019-05-25T14:01:53.864Z,98729.00
2019-05-25T14:04:21.075Z,98718.59
2019-05-25T14:06:47.860Z,98698.48
2019-05-25T14:09:15.936Z,98681.30
2019-05-25T14:11:43.239Z,98684.71
2019-05-25T14:14:10.177Z,98676.30
2019-05-25T14:16:37.095Z,98667.26
2019-05-25T14:19:04.114Z,98669.67
2019-05-25T14:21:31.184Z,98668.35
2019-05-25T14:23:58.173Z,98667.53
2019-05-25T14:26:25.360Z,98661.75
2019-05-25T14:28:52.463Z,98672.69
2019-05-25T14:31:19.236Z,98681.14
2019-05-25T14:33:46.302Z,98687.09
2019-05-25T14:36:13.544Z,98694.98
2019-05-25T14:38:40.328Z,98707.70
2019-05-25T14:41:07.089Z,98706.59
2019-05-25T14:43:34.265Z,98713.95
2019-05-25T14:46:01.138Z,98712.20
2019-05-25T14:48:28.568Z,98708.25
2019-05-25T14:50:56.102Z,98706.98
2019-05-25T14:53:22.950Z,98710.07
2019-05-25T14:55:49.754Z,98705.50
2019-05-25T14:58:16.587Z,98703.13
2019-05-25T15:00:43.546Z,98703.90
2019-05-25T15:03:10.617Z,98699.91
2019-05-25T15:05:38.144Z,98701.18
2019-05-25T15:08:05.362Z,98691.03
2019-05-25T15:10:32.320Z,98691.48
2019-05-25T15:13:01.927Z,98697.28
2019-05-25T15:15:29.054Z,98690.92
2019-05-25T15:17:55.953Z,98698.65
2019-05-25T15:20:23.026Z,98696.25
2019-05-25T15:22:49.818Z,98706.55
2019-05-25T15:25:19.292Z,98700.98
2019-05-25T15:27:46.156Z,98701.37
2019-05-25T15:30:14.296Z,98705.58
2019-05-25T15:32:42.003Z,98701.86
2019-05-25T15:35:09.368Z,98708.23
2019-05-25T15:37:36.275Z,98711.16
2019-05-25T15:40:08.807Z,98706.00
2019-05-25T15:42:36.553Z,98705.44
2019-05-25T15:45:05.790Z,98714.57
2019-05-25T15:47:32.684Z,98708.98
2019-05-25T15:49:59.791Z,98704.42
2019-05-25T15:52:27.054Z,98713.06
2019-05-25T15:54:54.460Z,98710.82
2019-05-25T15:57:21.402Z,98710.82
2019-05-25T15:59:48.328Z,98715.38
2019-05-25T16:02:16.325Z,98712.52
2019-05-25T16:04:43.639Z,98714.49
2019-05-25T16:07:10.519Z,98715.98
2019-05-25T16:09:37.534Z,98712.03
2019-05-25T16:12:04.635Z,98708.86
2019-05-25T16:14:31.463Z,98714.13
2019-05-25T16:16:58.863Z,98712.05
2019-05-25T16:19:25.935Z,98711.60
2019-05-25T16:21:53.382Z,98702.81
2019-05-25T16:24:20.510Z,98697.66
2019-05-25T16:26:47.408Z,98702.52
2019-05-25T16:29:14.589Z,98692.75
2019-05-25T16:31:44.393Z,98705.66
2019-05-25T16:34:11.414Z,98705.42
2019-05-25T16:36:38.350Z,98702.18
2019-05-25T16:39:06.657Z,98707.11
2019-05-25T16:41:33.904Z,98709.41
2019-05-25T16:44:00.927Z,98704.62
2019-05-25T16:46:28.279Z,98712.03
2019-05-25T16:48:55.147Z,98708.28
2019-05-25T16:51:22.379Z,98710.61
2019-05-25T16:53:49.323Z,98708.79
2019-05-25T16:56:16.550Z,98703.11
2019-05-25T16:58:43.328Z,98706.72
2019-05-25T17:01:10.425Z,98702.80
2019-05-25T17:03:37.392Z,98706.13
2019-05-25T17:06:04.405Z,98701.08
2019-05-25T17:08:31.169Z,98700.16
2019-05-25T17:10:57.938Z,98692.09
2019-05-25T17:13:25.068Z,98699.08
2019-05-25T17:15:52.042Z,98698.17
2019-05-25T17:18:19.053Z,98701.14
2019-05-25T17:20:46.017Z,98696.09
2019-05-25T17:23:12.822Z,98690.16
2019-05-25T17:25:39.715Z,98692.63
2019-05-25T17:28:06.581Z,98694.45
2019-05-25T17:30:44.100Z,98698.83
2019-05-25T17:33:11.297Z,98699.61
2019-05-25T17:35:39.353Z,98697.01
2019-05-25T17:38:06.525Z,98699.31
2019-05-25T17:40:33.514Z,98693.16
2019-05-25T17:43:00.479Z,98698.41
2019-05-25T17:45:27.476Z,98695.90
2019-05-25T17:47:55.257Z,98692.02
2019-05-25T17:50:25.460Z,98692.70
2019-05-25T17:52:52.439Z,98698.09
2019-05-25T17:55:19.601Z,98693.77
2019-05-25T17:57:46.549Z,98691.14
2019-05-25T18:00:19.671Z,98694.77
2019-05-25T18:02:46.475Z,98693.19
2019-05-25T18:05:13.999Z,98693.62
2019-05-25T18:07:40.823Z,98695.80
2019-05-25T18:10:08.299Z,98693.87
2019-05-25T18:12:35.278Z,98696.95
2019-05-25T18:15:07.589Z,98694.09
2019-05-25T18:17:34.858Z,98702.08
2019-05-25T18:20:07.037Z,98701.53
2019-05-25T18:22:34.010Z,98704.27
2019-05-25T18:25:01.004Z,98703.23
2019-05-25T18:27:27.947Z,98704.15
2019-05-25T18:29:57.547Z,98707.70
2019-05-25T18:32:25.129Z,98702.32
2019-05-25T18:34:54.941Z,98716.56
2019-05-25T18:37:22.203Z,98713.59
2019-05-25T18:39:49.001Z,98711.76
2019-05-25T18:42:15.835Z,98711.44
2019-05-25T18:44:42.712Z,98715.41
2019-05-25T18:47:09.635Z,98711.73
2019-05-25T18:49:36.776Z,98712.53
2019-05-25T18:52:04.196Z,98723.92
2019-05-25T18:54:30.947Z,98722.07
2019-05-25T18:56:58.108Z,98718.66
2019-05-25T18:59:25.599Z,98721.14
2019-05-25T19:01:52.553Z,98723.06
2019-05-25T19:04:19.819Z,98728.73
2019-05-25T19:06:46.641Z,98726.20
2019-05-25T19:09:13.564Z,98716.41
2019-05-25T19:11:40.556Z,98720.66
2019-05-25T19:14:07.732Z,98718.70
2019-05-25T19:16:34.858Z,98716.20
2019-05-25T19:19:01.711Z,98723.88
2019-05-25T19:21:28.642Z,98723.09
2019-05-25T19:23:55.595Z,98724.00
2019-05-25T19:26:22.497Z,98726.53
2019-05-25T19:28:49.443Z,98732.55
2019-05-25T19:31:16.394Z,98728.80
2019-05-25T19:33:43.253Z,98736.27
2019-05-25T19:36:10.364Z,98733.35
2019-05-25T19:38:37.257Z,98743.07
2019-05-25T19:41:04.380Z,98736.52
2019-05-25T19:43:31.438Z,98743.93
2019-05-25T19:45:58.220Z,98745.34
2019-05-25T19:48:25.174Z,98746.47
2019-05-25T19:50:51.944Z,98753.84
2019-05-25T19:53:18.749Z,98753.84
2019-05-25T19:55:45.662Z,98760.94
2019-05-25T19:58:12.797Z,98762.53
2019-05-25T20:00:39.994Z,98769.83
2019-05-25T20:03:06.890Z,98768.75
2019-05-25T20:05:33.768Z,98771.56
2019-05-25T20:08:00.609Z,98769.22
2019-05-25T20:10:28.104Z,98775.11
2019-05-25T20:12:55.092Z,98779.44
2019-05-25T20:15:23.356Z,98777.55
2019-05-25T20:17:50.213Z,98779.44
2019-05-25T20:20:18.339Z,98784.18
2019-05-25T20:22:45.254Z,98786.44
2019-05-25T20:25:12.744Z,98788.98
2019-05-25T20:27:39.708Z,98793.45
2019-05-25T20:30:08.504Z,98797.89
2019-05-25T20:32:35.525Z,98792.37
2019-05-25T20:35:05.596Z,98791.48
2019-05-25T20:37:32.590Z,98800.62
2019-05-25T20:39:59.406Z,98799.61
2019-05-25T20:42:26.406Z,98807.75
2019-05-25T20:44:53.653Z,98808.23
2019-05-25T20:47:20.537Z,98806.25
2019-05-25T20:49:47.548Z,98814.38
2019-05-25T20:52:15.382Z,98816.05
2019-05-25T20:54:42.572Z,98816.05
2019-05-25T20:57:09.794Z,98823.72
2019-05-25T20:59:36.776Z,98834.05
2019-05-25T21:02:04.110Z,98834.44
2019-05-25T21:04:30.967Z,98832.25
2019-05-25T21:06:58.071Z,98835.08
2019-05-25T21:09:25.268Z,98838.05
2019-05-25T21:11:55.598Z,98837.83
2019-05-25T21:14:20.878Z,98837.19
2019-05-25T21:16:47.701Z,98838.87
2019-05-25T21:19:14.640Z,98837.12
2019-05-25T21:21:41.736Z,98836.33
2019-05-25T21:24:08.770Z,98843.46
2019-05-25T21:26:35.973Z,98849.46
2019-05-25T21:29:03.314Z,98850.03
2019-05-25T21:31:30.084Z,98851.88
2019-05-25T21:33:57.140Z,98850.27
2019-05-25T21:36:25.996Z,98845.38
2019-05-25T21:38:54.449Z,98850.75
2019-05-25T21:41:23.468Z,98848.73
2019-05-25T21:43:50.326Z,98849.03
2019-05-25T21:46:17.207Z,98851.45
2019-05-25T21:48:44.365Z,98851.12
2019-05-25T21:51:11.828Z,98844.66
2019-05-25T21:53:38.588Z,98848.34
2019-05-25T21:56:05.402Z,98849.69
2019-05-25T21:58:32.149Z,98856.91
2019-05-25T22:00:59.269Z,98855.84
2019-05-25T22:03:26.051Z,98854.81
2019-05-25T22:05:53.108Z,98855.84
2019-05-25T22:08:20.143Z,98858.56
2019-05-25T22:10:47.194Z,98857.45
2019-05-25T22:13:26.876Z,98847.21
2019-05-25T22:15:42.989Z,98857.93
2019-05-25T22:18:09.918Z,98849.52
2019-05-25T22:20:37.825Z,98852.97
2019-05-25T22:23:04.696Z,98854.63
2019-05-25T22:25:31.594Z,98854.17
2019-05-25T22:27:58.542Z,98851.91
2019-05-25T22:30:26.207Z,98843.48
2019-05-25T22:32:53.041Z,98845.39
2019-05-25T22:35:19.851Z,98842.45
2019-05-25T22:37:46.770Z,98851.05
2019-05-25T22:40:14.033Z,98847.78
2019-05-25T22:42:40.973Z,98842.56
2019-05-25T22:45:10.098Z,98848.59
2019-05-25T22:47:37.218Z,98849.12
2019-05-25T22:50:05.437Z,98845.82
2019-05-25T22:52:32.219Z,98842.37
2019-05-25T22:54:59.101Z,98844.78
2019-05-25T22:57:25.977Z,98836.28
2019-05-25T22:59:55.779Z,98837.02
2019-05-25T23:02:22.595Z,98833.38
2019-05-25T23:04:49.488Z,98832.71
2019-05-25T23:07:16.420Z,98828.69
2019-05-25T23:09:43.339Z,98827.27
2019-05-25T23:12:10.373Z,98825.93
2019-05-25T23:14:37.293Z,98824.50
2019-05-25T23:17:04.187Z,98818.88
2019-05-25T23:19:30.977Z,98818.16
2019-05-25T23:21:58.139Z,98822.84
2019-05-25T23:24:24.991Z,98824.66
2019-05-25T23:26:51.887Z,98821.33
2019-05-25T23:29:18.758Z,98816.23
2019-05-25T23:31:45.527Z,98818.88
2019-05-25T23:34:12.457Z,98819.72
2019-05-25T23:36:39.313Z,98814.42
2019-05-25T23:39:06.185Z,98816.27
2019-05-25T23:41:33.124Z,98811.45
2019-05-25T23:44:02.727Z,98814.28
2019-05-25T23:46:29.571Z,98812.22
2019-05-25T23:48:56.451Z,98813.28
2019-05-25T23:51:23.349Z,98814.77
2019-05-25T23:53:50.298Z,98809.06
2019-05-25T23:56:17.265Z,98802.56
2019-05-25T23:58:44.150Z,98800.72
